sensor_id;sensor_type;location;lat;lon;timestamp;P1;durP1;ratioP1;P2;durP2;ratioP2
8893;SDS011;4483;48.622;9.230;2023-04-01T00:01:59;2.03;;;0.57;;
8893;SDS011;4483;48.622;9.230;2023-04-01T00:04:26;3.07;;;1.00;;
8893;SDS011;4483;48.622;9.230;2023-04-01T00:06:53;4.13;;;0.83;;
8893;SDS011;4483;48.622;9.230;2023-04-01T00:09:19;2.23;;;0.73;;
8893;SDS011;4483;48.622;9.230;2023-04-01T00:11:46;0.87;;;0.60;;
8893;SDS011;4483;48.622;9.230;2023-04-01T00:14:14;1.37;;;0.80;;
8893;SDS011;4483;48.622;9.230;2023-04-01T00:16:40;1.00;;;0.60;;
8893;SDS011;4483;48.622;9.230;2023-04-01T00:19:07;1.30;;;0.70;;
8893;SDS011;4483;48.622;9.230;2023-04-01T00:21:34;3.03;;;0.83;;
8893;SDS011;4483;48.622;9.230;2023-04-01T00:24:01;1.17;;;0.70;;
8893;SDS011;4483;48.622;9.230;2023-04-01T00:26:28;1.53;;;0.70;;
8893;SDS011;4483;48.622;9.230;2023-04-01T00:28:55;1.50;;;0.80;;
8893;SDS011;4483;48.622;9.230;2023-04-01T00:31:23;3.07;;;0.60;;
8893;SDS011;4483;48.622;9.230;2023-04-01T00:33:51;0.60;;;0.60;;
8893;SDS011;4483;48.622;9.230;2023-04-01T00:36:18;1.90;;;0.80;;
8893;SDS011;4483;48.622;9.230;2023-04-01T00:38:48;1.80;;;0.70;;
8893;SDS011;4483;48.622;9.230;2023-04-01T00:41:15;2.20;;;0.90;;
8893;SDS011;4483;48.622;9.230;2023-04-01T00:43:43;0.73;;;0.60;;
8893;SDS011;4483;48.622;9.230;2023-04-01T00:46:11;1.23;;;0.90;;
8893;SDS011;4483;48.622;9.230;2023-04-01T00:48:41;3.77;;;0.60;;
8893;SDS011;4483;48.622;9.230;2023-04-01T00:51:10;1.70;;;0.63;;
8893;SDS011;4483;48.622;9.230;2023-04-01T00:53:43;0.50;;;0.50;;
8893;SDS011;4483;48.622;9.230;2023-04-01T00:56:13;1.90;;;0.60;;
8893;SDS011;4483;48.622;9.230;2023-04-01T00:58:42;2.13;;;0.80;;
8893;SDS011;4483;48.622;9.230;2023-04-01T01:01:13;0.80;;;0.60;;
8893;SDS011;4483;48.622;9.230;2023-04-01T01:03:41;1.37;;;0.80;;
8893;SDS011;4483;48.622;9.230;2023-04-01T01:06:10;0.47;;;0.47;;
8893;SDS011;4483;48.622;9.230;2023-04-01T01:11:37;2.90;;;0.60;;
8893;SDS011;4483;48.622;9.230;2023-04-01T01:14:09;3.70;;;0.50;;
8893;SDS011;4483;48.622;9.230;2023-04-01T01:16:44;1.60;;;0.57;;
8893;SDS011;4483;48.622;9.230;2023-04-01T01:19:20;1.23;;;0.47;;
8893;SDS011;4483;48.622;9.230;2023-04-01T01:22:07;1.33;;;0.60;;
8893;SDS011;4483;48.622;9.230;2023-04-01T01:24:55;3.43;;;0.70;;
8893;SDS011;4483;48.622;9.230;2023-04-01T01:27:34;1.90;;;0.70;;
8893;SDS011;4483;48.622;9.230;2023-04-01T01:30:18;1.10;;;0.90;;
8893;SDS011;4483;48.622;9.230;2023-04-01T01:32:59;1.07;;;0.77;;
8893;SDS011;4483;48.622;9.230;2023-04-01T01:35:41;1.00;;;0.73;;
8893;SDS011;4483;48.622;9.230;2023-04-01T01:38:13;1.23;;;0.50;;
8893;SDS011;4483;48.622;9.230;2023-04-01T01:40:44;0.60;;;0.57;;
8893;SDS011;4483;48.622;9.230;2023-04-01T01:43:14;2.23;;;0.70;;
8893;SDS011;4483;48.622;9.230;2023-04-01T01:45:44;4.60;;;0.70;;
8893;SDS011;4483;48.622;9.230;2023-04-01T01:48:14;1.40;;;0.53;;
8893;SDS011;4483;48.622;9.230;2023-04-01T01:50:44;0.60;;;0.53;;
8893;SDS011;4483;48.622;9.230;2023-04-01T01:53:12;2.20;;;0.50;;
8893;SDS011;4483;48.622;9.230;2023-04-01T01:55:40;0.93;;;0.37;;
8893;SDS011;4483;48.622;9.230;2023-04-01T01:58:09;0.77;;;0.30;;
8893;SDS011;4483;48.622;9.230;2023-04-01T02:00:42;1.00;;;0.60;;
8893;SDS011;4483;48.622;9.230;2023-04-01T02:03:12;1.37;;;0.57;;
8893;SDS011;4483;48.622;9.230;2023-04-01T02:05:41;0.50;;;0.50;;
8893;SDS011;4483;48.622;9.230;2023-04-01T02:08:10;3.03;;;0.60;;
8893;SDS011;4483;48.622;9.230;2023-04-01T02:10:42;1.27;;;0.60;;
8893;SDS011;4483;48.622;9.230;2023-04-01T02:13:13;1.23;;;0.40;;
8893;SDS011;4483;48.622;9.230;2023-04-01T02:15:45;0.40;;;0.40;;
8893;SDS011;4483;48.622;9.230;2023-04-01T02:18:14;0.50;;;0.50;;
8893;SDS011;4483;48.622;9.230;2023-04-01T02:20:43;1.23;;;0.50;;
8893;SDS011;4483;48.622;9.230;2023-04-01T02:23:12;1.57;;;0.53;;
8893;SDS011;4483;48.622;9.230;2023-04-01T02:25:39;1.77;;;0.50;;
8893;SDS011;4483;48.622;9.230;2023-04-01T02:28:09;0.70;;;0.30;;
8893;SDS011;4483;48.622;9.230;2023-04-01T02:30:39;2.13;;;0.40;;
8893;SDS011;4483;48.622;9.230;2023-04-01T02:33:08;1.30;;;0.50;;
8893;SDS011;4483;48.622;9.230;2023-04-01T02:35:35;0.40;;;0.40;;
8893;SDS011;4483;48.622;9.230;2023-04-01T02:38:03;0.73;;;0.40;;
8893;SDS011;4483;48.622;9.230;2023-04-01T02:40:41;0.50;;;0.40;;
8893;SDS011;4483;48.622;9.230;2023-04-01T02:43:09;1.00;;;0.60;;
8893;SDS011;4483;48.622;9.230;2023-04-01T02:45:36;0.67;;;0.50;;
8893;SDS011;4483;48.622;9.230;2023-04-01T02:48:03;0.67;;;0.30;;
8893;SDS011;4483;48.622;9.230;2023-04-01T02:50:30;0.60;;;0.60;;
8893;SDS011;4483;48.622;9.230;2023-04-01T02:52:57;1.17;;;0.40;;
8893;SDS011;4483;48.622;9.230;2023-04-01T02:55:23;0.67;;;0.50;;
8893;SDS011;4483;48.622;9.230;2023-04-01T02:57:51;0.83;;;0.40;;
8893;SDS011;4483;48.622;9.230;2023-04-01T03:00:18;0.30;;;0.30;;
8893;SDS011;4483;48.622;9.230;2023-04-01T03:02:45;0.33;;;0.33;;
8893;SDS011;4483;48.622;9.230;2023-04-01T03:05:11;1.70;;;0.40;;
8893;SDS011;4483;48.622;9.230;2023-04-01T03:07:38;0.33;;;0.33;;
8893;SDS011;4483;48.622;9.230;2023-04-01T03:10:05;0.47;;;0.40;;
8893;SDS011;4483;48.622;9.230;2023-04-01T03:12:33;1.93;;;0.43;;
8893;SDS011;4483;48.622;9.230;2023-04-01T03:15:01;0.67;;;0.40;;
8893;SDS011;4483;48.622;9.230;2023-04-01T03:17:28;0.53;;;0.43;;
8893;SDS011;4483;48.622;9.230;2023-04-01T03:19:54;1.53;;;0.30;;
8893;SDS011;4483;48.622;9.230;2023-04-01T03:22:21;0.47;;;0.47;;
8893;SDS011;4483;48.622;9.230;2023-04-01T03:24:47;0.33;;;0.30;;
8893;SDS011;4483;48.622;9.230;2023-04-01T03:27:14;0.43;;;0.33;;
8893;SDS011;4483;48.622;9.230;2023-04-01T03:29:41;0.30;;;0.30;;
8893;SDS011;4483;48.622;9.230;2023-04-01T03:32:09;1.13;;;0.30;;
8893;SDS011;4483;48.622;9.230;2023-04-01T03:34:35;0.30;;;0.30;;
8893;SDS011;4483;48.622;9.230;2023-04-01T03:37:02;0.30;;;0.30;;
8893;SDS011;4483;48.622;9.230;2023-04-01T03:39:29;0.30;;;0.30;;
8893;SDS011;4483;48.622;9.230;2023-04-01T03:41:56;0.30;;;0.30;;
8893;SDS011;4483;48.622;9.230;2023-04-01T03:44:23;0.30;;;0.20;;
8893;SDS011;4483;48.622;9.230;2023-04-01T03:46:50;0.30;;;0.30;;
8893;SDS011;4483;48.622;9.230;2023-04-01T03:49:18;0.30;;;0.30;;
8893;SDS011;4483;48.622;9.230;2023-04-01T03:51:44;0.53;;;0.40;;
8893;SDS011;4483;48.622;9.230;2023-04-01T03:54:11;0.83;;;0.30;;
8893;SDS011;4483;48.622;9.230;2023-04-01T03:56:37;0.40;;;0.40;;
8893;SDS011;4483;48.622;9.230;2023-04-01T03:59:05;0.30;;;0.30;;
8893;SDS011;4483;48.622;9.230;2023-04-01T04:01:33;0.23;;;0.23;;
8893;SDS011;4483;48.622;9.230;2023-04-01T04:04:00;0.20;;;0.20;;
8893;SDS011;4483;48.622;9.230;2023-04-01T04:06:28;0.33;;;0.30;;
8893;SDS011;4483;48.622;9.230;2023-04-01T04:08:55;0.30;;;0.30;;
8893;SDS011;4483;48.622;9.230;2023-04-01T04:11:22;0.30;;;0.30;;
8893;SDS011;4483;48.622;9.230;2023-04-01T04:13:49;0.40;;;0.40;;
8893;SDS011;4483;48.622;9.230;2023-04-01T04:16:17;2.37;;;0.53;;
8893;SDS011;4483;48.622;9.230;2023-04-01T04:18:43;0.40;;;0.40;;
8893;SDS011;4483;48.622;9.230;2023-04-01T04:21:11;0.30;;;0.23;;
8893;SDS011;4483;48.622;9.230;2023-04-01T04:23:40;1.03;;;0.50;;
8893;SDS011;4483;48.622;9.230;2023-04-01T04:26:07;0.40;;;0.40;;
8893;SDS011;4483;48.622;9.230;2023-04-01T04:28:35;0.50;;;0.50;;
8893;SDS011;4483;48.622;9.230;2023-04-01T04:31:02;0.40;;;0.40;;
8893;SDS011;4483;48.622;9.230;2023-04-01T04:33:29;0.53;;;0.30;;
8893;SDS011;4483;48.622;9.230;2023-04-01T04:35:57;0.70;;;0.40;;
8893;SDS011;4483;48.622;9.230;2023-04-01T04:38:25;0.40;;;0.40;;
8893;SDS011;4483;48.622;9.230;2023-04-01T04:40:53;0.30;;;0.30;;
8893;SDS011;4483;48.622;9.230;2023-04-01T04:43:20;0.53;;;0.40;;
8893;SDS011;4483;48.622;9.230;2023-04-01T04:45:47;0.47;;;0.47;;
8893;SDS011;4483;48.622;9.230;2023-04-01T04:48:14;0.30;;;0.30;;
8893;SDS011;4483;48.622;9.230;2023-04-01T04:50:44;0.30;;;0.30;;
8893;SDS011;4483;48.622;9.230;2023-04-01T04:53:11;0.53;;;0.50;;
8893;SDS011;4483;48.622;9.230;2023-04-01T04:55:42;3.03;;;0.50;;
8893;SDS011;4483;48.622;9.230;2023-04-01T04:58:10;1.80;;;0.50;;
8893;SDS011;4483;48.622;9.230;2023-04-01T05:00:37;1.50;;;0.50;;
8893;SDS011;4483;48.622;9.230;2023-04-01T05:03:03;0.20;;;0.20;;
8893;SDS011;4483;48.622;9.230;2023-04-01T05:05:30;0.73;;;0.50;;
8893;SDS011;4483;48.622;9.230;2023-04-01T05:07:57;0.67;;;0.60;;
8893;SDS011;4483;48.622;9.230;2023-04-01T05:10:23;1.83;;;0.63;;
8893;SDS011;4483;48.622;9.230;2023-04-01T05:12:50;0.50;;;0.50;;
8893;SDS011;4483;48.622;9.230;2023-04-01T05:15:18;1.43;;;0.60;;
8893;SDS011;4483;48.622;9.230;2023-04-01T05:17:44;0.40;;;0.40;;
8893;SDS011;4483;48.622;9.230;2023-04-01T05:20:11;1.83;;;0.60;;
8893;SDS011;4483;48.622;9.230;2023-04-01T05:22:39;0.30;;;0.30;;
8893;SDS011;4483;48.622;9.230;2023-04-01T05:25:06;0.47;;;0.47;;
8893;SDS011;4483;48.622;9.230;2023-04-01T05:27:33;1.97;;;0.57;;
8893;SDS011;4483;48.622;9.230;2023-04-01T05:29:59;0.60;;;0.60;;
8893;SDS011;4483;48.622;9.230;2023-04-01T05:32:27;1.83;;;0.47;;
8893;SDS011;4483;48.622;9.230;2023-04-01T05:34:54;2.63;;;0.30;;
8893;SDS011;4483;48.622;9.230;2023-04-01T05:37:20;1.70;;;0.73;;
8893;SDS011;4483;48.622;9.230;2023-04-01T05:39:47;2.30;;;0.70;;
8893;SDS011;4483;48.622;9.230;2023-04-01T05:42:14;1.80;;;0.50;;
8893;SDS011;4483;48.622;9.230;2023-04-01T05:44:41;1.23;;;0.60;;
8893;SDS011;4483;48.622;9.230;2023-04-01T05:47:07;0.50;;;0.50;;
8893;SDS011;4483;48.622;9.230;2023-04-01T05:49:35;1.60;;;0.47;;
8893;SDS011;4483;48.622;9.230;2023-04-01T05:52:02;0.67;;;0.60;;
8893;SDS011;4483;48.622;9.230;2023-04-01T05:54:29;0.50;;;0.50;;
8893;SDS011;4483;48.622;9.230;2023-04-01T05:56:55;0.67;;;0.50;;
8893;SDS011;4483;48.622;9.230;2023-04-01T05:59:22;0.53;;;0.43;;
8893;SDS011;4483;48.622;9.230;2023-04-01T06:01:49;1.37;;;0.43;;
8893;SDS011;4483;48.622;9.230;2023-04-01T06:04:16;0.70;;;0.50;;
8893;SDS011;4483;48.622;9.230;2023-04-01T06:06:45;0.53;;;0.30;;
8893;SDS011;4483;48.622;9.230;2023-04-01T06:09:13;0.77;;;0.43;;
8893;SDS011;4483;48.622;9.230;2023-04-01T06:11:44;0.60;;;0.53;;
8893;SDS011;4483;48.622;9.230;2023-04-01T06:14:24;0.63;;;0.50;;
8893;SDS011;4483;48.622;9.230;2023-04-01T06:17:03;0.93;;;0.40;;
8893;SDS011;4483;48.622;9.230;2023-04-01T06:19:42;0.57;;;0.50;;
8893;SDS011;4483;48.622;9.230;2023-04-01T06:25:39;0.43;;;0.43;;
8893;SDS011;4483;48.622;9.230;2023-04-01T06:31:20;0.30;;;0.30;;
8893;SDS011;4483;48.622;9.230;2023-04-01T06:34:04;0.70;;;0.70;;
8893;SDS011;4483;48.622;9.230;2023-04-01T06:39:49;0.60;;;0.50;;
8893;SDS011;4483;48.622;9.230;2023-04-01T06:42:36;1.48;;;0.60;;
8893;SDS011;4483;48.622;9.230;2023-04-01T06:45:20;0.70;;;0.47;;
8893;SDS011;4483;48.622;9.230;2023-04-01T06:48:01;0.73;;;0.40;;
8893;SDS011;4483;48.622;9.230;2023-04-01T06:50:54;0.50;;;0.50;;
8893;SDS011;4483;48.622;9.230;2023-04-01T06:53:29;0.87;;;0.70;;
8893;SDS011;4483;48.622;9.230;2023-04-01T06:56:05;0.63;;;0.40;;
8893;SDS011;4483;48.622;9.230;2023-04-01T06:58:37;0.43;;;0.43;;
8893;SDS011;4483;48.622;9.230;2023-04-01T07:01:10;1.07;;;0.50;;
8893;SDS011;4483;48.622;9.230;2023-04-01T07:03:43;0.97;;;0.73;;
8893;SDS011;4483;48.622;9.230;2023-04-01T07:06:14;0.40;;;0.40;;
8893;SDS011;4483;48.622;9.230;2023-04-01T07:08:47;2.97;;;0.60;;
8893;SDS011;4483;48.622;9.230;2023-04-01T07:11:20;0.40;;;0.30;;
8893;SDS011;4483;48.622;9.230;2023-04-01T07:13:53;1.50;;;0.50;;
8893;SDS011;4483;48.622;9.230;2023-04-01T07:16:25;0.40;;;0.40;;
8893;SDS011;4483;48.622;9.230;2023-04-01T07:18:56;1.80;;;0.60;;
8893;SDS011;4483;48.622;9.230;2023-04-01T07:21:29;0.47;;;0.47;;
8893;SDS011;4483;48.622;9.230;2023-04-01T07:24:01;0.53;;;0.50;;
8893;SDS011;4483;48.622;9.230;2023-04-01T07:26:32;0.53;;;0.40;;
8893;SDS011;4483;48.622;9.230;2023-04-01T07:29:00;0.83;;;0.50;;
8893;SDS011;4483;48.622;9.230;2023-04-01T07:31:33;0.80;;;0.37;;
8893;SDS011;4483;48.622;9.230;2023-04-01T07:34:12;0.50;;;0.43;;
8893;SDS011;4483;48.622;9.230;2023-04-01T07:36:46;1.50;;;0.80;;
8893;SDS011;4483;48.622;9.230;2023-04-01T07:39:24;0.70;;;0.70;;
8893;SDS011;4483;48.622;9.230;2023-04-01T07:42:02;0.50;;;0.50;;
8893;SDS011;4483;48.622;9.230;2023-04-01T07:44:38;1.03;;;0.40;;
8893;SDS011;4483;48.622;9.230;2023-04-01T07:47:15;1.40;;;0.63;;
8893;SDS011;4483;48.622;9.230;2023-04-01T07:49:52;0.77;;;0.50;;
8893;SDS011;4483;48.622;9.230;2023-04-01T07:52:29;0.40;;;0.40;;
8893;SDS011;4483;48.622;9.230;2023-04-01T07:55:02;1.50;;;0.60;;
8893;SDS011;4483;48.622;9.230;2023-04-01T07:57:37;2.13;;;0.60;;
8893;SDS011;4483;48.622;9.230;2023-04-01T08:00:12;0.77;;;0.70;;
8893;SDS011;4483;48.622;9.230;2023-04-01T08:02:51;0.93;;;0.53;;
8893;SDS011;4483;48.622;9.230;2023-04-01T08:05:29;1.23;;;0.43;;
8893;SDS011;4483;48.622;9.230;2023-04-01T08:08:06;0.60;;;0.60;;
8893;SDS011;4483;48.622;9.230;2023-04-01T08:10:40;1.70;;;0.67;;
8893;SDS011;4483;48.622;9.230;2023-04-01T08:13:14;0.60;;;0.60;;
8893;SDS011;4483;48.622;9.230;2023-04-01T08:15:52;0.50;;;0.50;;
8893;SDS011;4483;48.622;9.230;2023-04-01T08:18:27;0.70;;;0.70;;
8893;SDS011;4483;48.622;9.230;2023-04-01T08:21:01;0.73;;;0.50;;
8893;SDS011;4483;48.622;9.230;2023-04-01T08:23:30;2.60;;;0.50;;
8893;SDS011;4483;48.622;9.230;2023-04-01T08:26:03;0.50;;;0.50;;
8893;SDS011;4483;48.622;9.230;2023-04-01T08:28:34;0.87;;;0.63;;
8893;SDS011;4483;48.622;9.230;2023-04-01T08:31:08;0.50;;;0.50;;
8893;SDS011;4483;48.622;9.230;2023-04-01T08:33:40;0.60;;;0.60;;
8893;SDS011;4483;48.622;9.230;2023-04-01T08:36:11;1.50;;;0.60;;
8893;SDS011;4483;48.622;9.230;2023-04-01T08:38:42;1.70;;;0.80;;
8893;SDS011;4483;48.622;9.230;2023-04-01T08:41:20;0.63;;;0.50;;
8893;SDS011;4483;48.622;9.230;2023-04-01T08:44:16;0.37;;;0.37;;
8893;SDS011;4483;48.622;9.230;2023-04-01T08:50:06;1.63;;;0.60;;
8893;SDS011;4483;48.622;9.230;2023-04-01T08:53:03;2.53;;;0.63;;
8893;SDS011;4483;48.622;9.230;2023-04-01T08:55:38;1.60;;;0.93;;
8893;SDS011;4483;48.622;9.230;2023-04-01T09:01:17;0.47;;;0.47;;
8893;SDS011;4483;48.622;9.230;2023-04-01T09:04:17;0.40;;;0.40;;
8893;SDS011;4483;48.622;9.230;2023-04-01T09:06:56;0.50;;;0.50;;
8893;SDS011;4483;48.622;9.230;2023-04-01T09:09:49;1.30;;;0.70;;
8893;SDS011;4483;48.622;9.230;2023-04-01T09:12:31;0.83;;;0.83;;
8893;SDS011;4483;48.622;9.230;2023-04-01T09:18:20;0.70;;;0.70;;
8893;SDS011;4483;48.622;9.230;2023-04-01T09:21:00;0.50;;;0.50;;
8893;SDS011;4483;48.622;9.230;2023-04-01T09:27:02;0.50;;;0.50;;
8893;SDS011;4483;48.622;9.230;2023-04-01T09:29:44;0.70;;;0.70;;
8893;SDS011;4483;48.622;9.230;2023-04-01T09:32:30;0.50;;;0.50;;
8893;SDS011;4483;48.622;9.230;2023-04-01T09:35:15;0.30;;;0.30;;
8893;SDS011;4483;48.622;9.230;2023-04-01T09:37:53;1.00;;;0.60;;
8893;SDS011;4483;48.622;9.230;2023-04-01T09:40:31;0.70;;;0.70;;
8893;SDS011;4483;48.622;9.230;2023-04-01T09:43:13;0.67;;;0.50;;
8893;SDS011;4483;48.622;9.230;2023-04-01T09:45:52;0.50;;;0.50;;
8893;SDS011;4483;48.622;9.230;2023-04-01T09:48:39;0.80;;;0.60;;
8893;SDS011;4483;48.622;9.230;2023-04-01T09:51:23;0.67;;;0.60;;
8893;SDS011;4483;48.622;9.230;2023-04-01T09:54:01;1.13;;;0.60;;
8893;SDS011;4483;48.622;9.230;2023-04-01T09:59:58;0.70;;;0.70;;
8893;SDS011;4483;48.622;9.230;2023-04-01T10:09:26;1.10;;;0.80;;
8893;SDS011;4483;48.622;9.230;2023-04-01T10:21:42;0.27;;;0.27;;
8893;SDS011;4483;48.622;9.230;2023-04-01T10:27:33;0.83;;;0.60;;
8893;SDS011;4483;48.622;9.230;2023-04-01T10:30:31;1.50;;;0.50;;
8893;SDS011;4483;48.622;9.230;2023-04-01T10:33:36;0.40;;;0.40;;
8893;SDS011;4483;48.622;9.230;2023-04-01T10:39:26;1.77;;;0.73;;
8893;SDS011;4483;48.622;9.230;2023-04-01T10:48:14;0.30;;;0.30;;
8893;SDS011;4483;48.622;9.230;2023-04-01T10:51:09;0.53;;;0.40;;
8893;SDS011;4483;48.622;9.230;2023-04-01T10:53:46;0.40;;;0.40;;
8893;SDS011;4483;48.622;9.230;2023-04-01T11:05:42;1.90;;;0.50;;
8893;SDS011;4483;48.622;9.230;2023-04-01T11:15:08;0.40;;;0.40;;
8893;SDS011;4483;48.622;9.230;2023-04-01T11:18:03;0.67;;;0.50;;
8893;SDS011;4483;48.622;9.230;2023-04-01T11:24:29;0.40;;;0.40;;
8893;SDS011;4483;48.622;9.230;2023-04-01T11:27:15;0.30;;;0.30;;
8893;SDS011;4483;48.622;9.230;2023-04-01T11:29:57;1.50;;;0.40;;
8893;SDS011;4483;48.622;9.230;2023-04-01T11:32:40;0.30;;;0.30;;
8893;SDS011;4483;48.622;9.230;2023-04-01T11:35:19;0.20;;;0.20;;
8893;SDS011;4483;48.622;9.230;2023-04-01T11:37:57;0.30;;;0.30;;
8893;SDS011;4483;48.622;9.230;2023-04-01T11:40:40;0.30;;;0.30;;
8893;SDS011;4483;48.622;9.230;2023-04-01T11:43:14;8.17;;;2.83;;
8893;SDS011;4483;48.622;9.230;2023-04-01T11:45:48;0.37;;;0.37;;
8893;SDS011;4483;48.622;9.230;2023-04-01T11:48:25;0.40;;;0.40;;
8893;SDS011;4483;48.622;9.230;2023-04-01T11:53:58;0.30;;;0.30;;
8893;SDS011;4483;48.622;9.230;2023-04-01T11:56:37;0.30;;;0.30;;
8893;SDS011;4483;48.622;9.230;2023-04-01T11:59:27;0.40;;;0.40;;
8893;SDS011;4483;48.622;9.230;2023-04-01T12:02:08;0.50;;;0.50;;
8893;SDS011;4483;48.622;9.230;2023-04-01T12:10:39;0.50;;;0.50;;
8893;SDS011;4483;48.622;9.230;2023-04-01T12:13:16;0.70;;;0.40;;
8893;SDS011;4483;48.622;9.230;2023-04-01T12:15:58;0.30;;;0.30;;
8893;SDS011;4483;48.622;9.230;2023-04-01T12:18:36;0.93;;;0.30;;
8893;SDS011;4483;48.622;9.230;2023-04-01T12:21:09;0.40;;;0.40;;
8893;SDS011;4483;48.622;9.230;2023-04-01T12:24:04;1.37;;;0.43;;
8893;SDS011;4483;48.622;9.230;2023-04-01T12:29:59;0.83;;;0.40;;
8893;SDS011;4483;48.622;9.230;2023-04-01T12:32:39;0.93;;;0.40;;
8893;SDS011;4483;48.622;9.230;2023-04-01T12:35:17;0.40;;;0.40;;
8893;SDS011;4483;48.622;9.230;2023-04-01T12:37:50;0.30;;;0.30;;
8893;SDS011;4483;48.622;9.230;2023-04-01T12:40:44;0.30;;;0.30;;
8893;SDS011;4483;48.622;9.230;2023-04-01T12:43:25;0.37;;;0.37;;
8893;SDS011;4483;48.622;9.230;2023-04-01T12:46:18;0.37;;;0.37;;
8893;SDS011;4483;48.622;9.230;2023-04-01T12:49:02;0.30;;;0.30;;
8893;SDS011;4483;48.622;9.230;2023-04-01T12:51:47;0.37;;;0.37;;
8893;SDS011;4483;48.622;9.230;2023-04-01T12:57:25;0.20;;;0.20;;
8893;SDS011;4483;48.622;9.230;2023-04-01T13:00:11;0.30;;;0.30;;
8893;SDS011;4483;48.622;9.230;2023-04-01T13:02:57;0.30;;;0.30;;
8893;SDS011;4483;48.622;9.230;2023-04-01T13:08:46;0.30;;;0.30;;
8893;SDS011;4483;48.622;9.230;2023-04-01T13:11:20;0.93;;;0.43;;
8893;SDS011;4483;48.622;9.230;2023-04-01T13:14:03;0.67;;;0.60;;
8893;SDS011;4483;48.622;9.230;2023-04-01T13:16:52;0.60;;;0.37;;
8893;SDS011;4483;48.622;9.230;2023-04-01T13:19:25;0.47;;;0.47;;
8893;SDS011;4483;48.622;9.230;2023-04-01T13:21:58;1.03;;;0.80;;
8893;SDS011;4483;48.622;9.230;2023-04-01T13:24:36;0.30;;;0.30;;
8893;SDS011;4483;48.622;9.230;2023-04-01T13:27:12;0.20;;;0.20;;
8893;SDS011;4483;48.622;9.230;2023-04-01T13:29:45;0.20;;;0.20;;
8893;SDS011;4483;48.622;9.230;2023-04-01T13:32:29;0.30;;;0.30;;
8893;SDS011;4483;48.622;9.230;2023-04-01T13:35:06;0.20;;;0.20;;
8893;SDS011;4483;48.622;9.230;2023-04-01T13:37:47;0.43;;;0.37;;
8893;SDS011;4483;48.622;9.230;2023-04-01T13:40:32;0.30;;;0.30;;
8893;SDS011;4483;48.622;9.230;2023-04-01T13:43:04;0.30;;;0.30;;
8893;SDS011;4483;48.622;9.230;2023-04-01T13:45:41;0.30;;;0.30;;
8893;SDS011;4483;48.622;9.230;2023-04-01T13:48:28;0.30;;;0.30;;
8893;SDS011;4483;48.622;9.230;2023-04-01T13:57:07;0.30;;;0.30;;
8893;SDS011;4483;48.622;9.230;2023-04-01T13:59:58;0.50;;;0.50;;
8893;SDS011;4483;48.622;9.230;2023-04-01T14:02:42;0.20;;;0.20;;
8893;SDS011;4483;48.622;9.230;2023-04-01T14:05:26;0.40;;;0.40;;
8893;SDS011;4483;48.622;9.230;2023-04-01T14:08:04;0.30;;;0.30;;
8893;SDS011;4483;48.622;9.230;2023-04-01T14:10:42;0.30;;;0.30;;
8893;SDS011;4483;48.622;9.230;2023-04-01T14:13:18;0.50;;;0.50;;
8893;SDS011;4483;48.622;9.230;2023-04-01T14:16:00;0.30;;;0.30;;
8893;SDS011;4483;48.622;9.230;2023-04-01T14:18:47;0.53;;;0.37;;
8893;SDS011;4483;48.622;9.230;2023-04-01T14:21:28;0.80;;;0.50;;
8893;SDS011;4483;48.622;9.230;2023-04-01T14:24:14;0.40;;;0.40;;
8893;SDS011;4483;48.622;9.230;2023-04-01T14:29:52;4.00;;;2.53;;
8893;SDS011;4483;48.622;9.230;2023-04-01T14:32:33;0.93;;;0.50;;
8893;SDS011;4483;48.622;9.230;2023-04-01T14:35:17;0.53;;;0.53;;
8893;SDS011;4483;48.622;9.230;2023-04-01T14:38:04;0.50;;;0.50;;
8893;SDS011;4483;48.622;9.230;2023-04-01T14:40:48;0.83;;;0.83;;
8893;SDS011;4483;48.622;9.230;2023-04-01T14:43:24;0.33;;;0.33;;
8893;SDS011;4483;48.622;9.230;2023-04-01T14:49:14;0.30;;;0.30;;
8893;SDS011;4483;48.622;9.230;2023-04-01T14:51:46;0.53;;;0.40;;
8893;SDS011;4483;48.622;9.230;2023-04-01T14:54:15;0.40;;;0.40;;
8893;SDS011;4483;48.622;9.230;2023-04-01T14:56:48;0.30;;;0.30;;
8893;SDS011;4483;48.622;9.230;2023-04-01T14:59:25;0.40;;;0.40;;
8893;SDS011;4483;48.622;9.230;2023-04-01T15:01:55;0.40;;;0.40;;
8893;SDS011;4483;48.622;9.230;2023-04-01T15:10:23;0.40;;;0.40;;
8893;SDS011;4483;48.622;9.230;2023-04-01T15:13:12;0.60;;;0.60;;
8893;SDS011;4483;48.622;9.230;2023-04-01T15:15:46;0.77;;;0.40;;
8893;SDS011;4483;48.622;9.230;2023-04-01T15:18:27;0.30;;;0.30;;
8893;SDS011;4483;48.622;9.230;2023-04-01T15:24:00;1.37;;;0.50;;
8893;SDS011;4483;48.622;9.230;2023-04-01T15:26:42;0.40;;;0.40;;
8893;SDS011;4483;48.622;9.230;2023-04-01T15:29:25;0.30;;;0.30;;
8893;SDS011;4483;48.622;9.230;2023-04-01T15:32:01;1.20;;;0.60;;
8893;SDS011;4483;48.622;9.230;2023-04-01T15:34:35;0.40;;;0.40;;
8893;SDS011;4483;48.622;9.230;2023-04-01T15:37:12;1.70;;;0.47;;
8893;SDS011;4483;48.622;9.230;2023-04-01T15:39:49;0.37;;;0.37;;
8893;SDS011;4483;48.622;9.230;2023-04-01T15:45:16;0.50;;;0.50;;
8893;SDS011;4483;48.622;9.230;2023-04-01T15:47:54;0.70;;;0.70;;
8893;SDS011;4483;48.622;9.230;2023-04-01T15:50:44;0.60;;;0.60;;
8893;SDS011;4483;48.622;9.230;2023-04-01T15:53:33;0.73;;;0.53;;
8893;SDS011;4483;48.622;9.230;2023-04-01T15:56:19;1.80;;;0.60;;
8893;SDS011;4483;48.622;9.230;2023-04-01T15:58:59;1.27;;;1.23;;
8893;SDS011;4483;48.622;9.230;2023-04-01T16:01:35;1.07;;;0.63;;
8893;SDS011;4483;48.622;9.230;2023-04-01T16:07:10;0.53;;;0.47;;
8893;SDS011;4483;48.622;9.230;2023-04-01T16:09:53;0.70;;;0.50;;
8893;SDS011;4483;48.622;9.230;2023-04-01T16:12:36;0.60;;;0.37;;
8893;SDS011;4483;48.622;9.230;2023-04-01T16:15:16;0.40;;;0.40;;
8893;SDS011;4483;48.622;9.230;2023-04-01T16:18:01;0.57;;;0.57;;
8893;SDS011;4483;48.622;9.230;2023-04-01T16:20:50;0.83;;;0.63;;
8893;SDS011;4483;48.622;9.230;2023-04-01T16:23:22;0.60;;;0.53;;
8893;SDS011;4483;48.622;9.230;2023-04-01T16:25:53;0.40;;;0.40;;
8893;SDS011;4483;48.622;9.230;2023-04-01T16:28:29;0.90;;;0.70;;
8893;SDS011;4483;48.622;9.230;2023-04-01T16:31:03;1.60;;;0.70;;
8893;SDS011;4483;48.622;9.230;2023-04-01T16:33:39;0.50;;;0.50;;
8893;SDS011;4483;48.622;9.230;2023-04-01T16:36:13;0.50;;;0.50;;
8893;SDS011;4483;48.622;9.230;2023-04-01T16:38:52;0.47;;;0.47;;
8893;SDS011;4483;48.622;9.230;2023-04-01T16:41:35;0.50;;;0.50;;
8893;SDS011;4483;48.622;9.230;2023-04-01T16:44:13;1.43;;;0.70;;
8893;SDS011;4483;48.622;9.230;2023-04-01T16:46:47;0.80;;;0.80;;
8893;SDS011;4483;48.622;9.230;2023-04-01T16:49:32;0.97;;;0.97;;
8893;SDS011;4483;48.622;9.230;2023-04-01T16:54:57;1.13;;;1.13;;
8893;SDS011;4483;48.622;9.230;2023-04-01T16:57:30;0.73;;;0.60;;
8893;SDS011;4483;48.622;9.230;2023-04-01T17:00:14;0.63;;;0.63;;
8893;SDS011;4483;48.622;9.230;2023-04-01T17:02:52;0.70;;;0.60;;
8893;SDS011;4483;48.622;9.230;2023-04-01T17:05:36;0.70;;;0.70;;
8893;SDS011;4483;48.622;9.230;2023-04-01T17:08:15;0.60;;;0.60;;
8893;SDS011;4483;48.622;9.230;2023-04-01T17:10:50;0.67;;;0.67;;
8893;SDS011;4483;48.622;9.230;2023-04-01T17:13:29;0.50;;;0.50;;
8893;SDS011;4483;48.622;9.230;2023-04-01T17:16:12;0.57;;;0.57;;
8893;SDS011;4483;48.622;9.230;2023-04-01T17:18:50;0.83;;;0.50;;
8893;SDS011;4483;48.622;9.230;2023-04-01T17:21:38;0.60;;;0.60;;
8893;SDS011;4483;48.622;9.230;2023-04-01T17:24:21;0.83;;;0.70;;
8893;SDS011;4483;48.622;9.230;2023-04-01T17:27:01;1.10;;;0.50;;
8893;SDS011;4483;48.622;9.230;2023-04-01T17:29:46;0.77;;;0.60;;
8893;SDS011;4483;48.622;9.230;2023-04-01T17:32:34;0.67;;;0.67;;
8893;SDS011;4483;48.622;9.230;2023-04-01T17:35:14;0.57;;;0.57;;
8893;SDS011;4483;48.622;9.230;2023-04-01T17:37:53;7.60;;;5.67;;
8893;SDS011;4483;48.622;9.230;2023-04-01T17:40:41;6.70;;;6.17;;
8893;SDS011;4483;48.622;9.230;2023-04-01T17:43:19;2.90;;;2.70;;
8893;SDS011;4483;48.622;9.230;2023-04-01T17:45:52;1.07;;;0.77;;
8893;SDS011;4483;48.622;9.230;2023-04-01T17:48:24;4.83;;;4.33;;
8893;SDS011;4483;48.622;9.230;2023-04-01T17:51:07;1.43;;;1.33;;
8893;SDS011;4483;48.622;9.230;2023-04-01T17:53:44;14.50;;;13.00;;
8893;SDS011;4483;48.622;9.230;2023-04-01T17:59:22;16.90;;;11.87;;
8893;SDS011;4483;48.622;9.230;2023-04-01T18:01:59;53.50;;;34.43;;
8893;SDS011;4483;48.622;9.230;2023-04-01T18:04:49;41.03;;;31.73;;
8893;SDS011;4483;48.622;9.230;2023-04-01T18:07:37;2.10;;;1.60;;
8893;SDS011;4483;48.622;9.230;2023-04-01T18:10:21;11.87;;;5.93;;
8893;SDS011;4483;48.622;9.230;2023-04-01T18:13:08;47.03;;;24.03;;